createdAt,value
2023-09-06T00:04:31.340Z,20.68
2023-09-06T00:14:34.543Z,20.65
2023-09-06T00:24:38.956Z,20.55
2023-09-06T00:34:41.955Z,20.34
2023-09-06T00:44:46.499Z,20.07
2023-09-06T00:54:50.528Z,19.87
2023-09-06T01:04:56.049Z,19.65
2023-09-06T01:14:59.097Z,19.50
2023-09-06T01:25:04.526Z,19.45
2023-09-06T01:35:11.369Z,19.38
2023-09-06T01:45:18.722Z,19.32
2023-09-06T01:55:22.719Z,19.19
2023-09-06T02:05:27.243Z,19.10
2023-09-06T02:15:30.871Z,18.98
2023-09-06T02:25:36.016Z,18.82
2023-09-06T02:35:41.652Z,18.77
2023-09-06T02:45:51.346Z,18.64
2023-09-06T02:55:55.417Z,18.40
2023-09-06T03:06:05.307Z,18.10
2023-09-06T03:16:09.035Z,17.88
2023-09-06T03:26:14.502Z,17.67
2023-09-06T03:36:18.116Z,17.55
2023-09-06T03:46:24.051Z,17.38
2023-09-06T03:56:27.149Z,17.22
2023-09-06T04:06:32.357Z,17.08
2023-09-06T04:16:36.588Z,16.99
2023-09-06T04:26:42.347Z,16.82
2023-09-06T04:36:45.819Z,16.73
2023-09-06T04:46:50.377Z,16.79
2023-09-06T04:56:54.442Z,16.83
2023-09-06T05:07:01.370Z,17.01
2023-09-06T05:17:04.517Z,17.15
2023-09-06T05:27:08.920Z,17.29
2023-09-06T05:37:12.856Z,17.47
2023-09-06T05:47:17.419Z,17.57
2023-09-06T05:57:20.599Z,17.81
2023-09-06T06:07:25.579Z,18.02
2023-09-06T06:17:29.858Z,18.31
2023-09-06T06:27:40.529Z,18.61
2023-09-06T06:37:50.583Z,19.04
2023-09-06T06:47:55.511Z,19.48
2023-09-06T06:58:04.634Z,19.97
2023-09-06T07:08:09.885Z,20.50
2023-09-06T07:18:17.738Z,20.96
2023-09-06T07:28:38.711Z,21.45
2023-09-06T07:38:42.449Z,21.89
2023-09-06T07:48:47.322Z,22.31
2023-09-06T07:58:53.167Z,22.78
2023-09-06T08:09:00.771Z,23.18
2023-09-06T08:19:06.167Z,23.68
2023-09-06T08:29:16.440Z,24.09
2023-09-06T08:39:23.375Z,24.49
2023-09-06T08:49:30.634Z,24.92
2023-09-06T08:59:42.723Z,25.33
2023-09-06T09:10:01.759Z,25.59
2023-09-06T09:20:06.916Z,25.89
2023-09-06T09:30:13.093Z,26.15
2023-09-06T09:40:20.266Z,26.36
2023-09-06T09:50:26.522Z,26.70
2023-09-06T10:00:31.872Z,27.05
2023-09-06T10:10:40.803Z,27.13
2023-09-06T10:20:51.142Z,27.36
2023-09-06T10:31:09.189Z,27.76
2023-09-06T10:41:12.549Z,27.89
2023-09-06T10:51:19.270Z,28.09
2023-09-06T11:01:22.460Z,28.46
2023-09-06T11:11:33.589Z,28.59
2023-09-06T11:21:37.698Z,28.93
2023-09-06T11:31:50.709Z,28.90
2023-09-06T11:41:55.626Z,29.02
2023-09-06T11:52:06.325Z,29.08
2023-09-06T12:02:14.525Z,29.06
2023-09-06T12:12:21.755Z,29.52
2023-09-06T12:22:27.411Z,29.26
2023-09-06T12:32:36.105Z,29.51
2023-09-06T12:42:46.125Z,29.51
2023-09-06T12:52:54.706Z,29.79
2023-09-06T13:03:01.947Z,29.98
2023-09-06T13:13:09.837Z,30.05
2023-09-06T13:23:16.618Z,30.14
2023-09-06T13:33:23.829Z,30.34
2023-09-06T13:43:33.706Z,30.39
2023-09-06T13:53:44.694Z,30.48
2023-09-06T14:03:48.349Z,30.63
2023-09-06T14:14:01.953Z,30.64
2023-09-06T14:24:08.303Z,30.74
2023-09-06T14:34:16.826Z,31.03
2023-09-06T14:44:21.464Z,31.48
2023-09-06T14:54:33.123Z,31.66
2023-09-06T15:04:38.528Z,31.90
2023-09-06T15:14:49.229Z,32.26
2023-09-06T15:24:54.423Z,32.01
2023-09-06T15:35:09.381Z,31.75
2023-09-06T15:45:13.222Z,31.05
2023-09-06T15:55:18.829Z,30.50
2023-09-06T16:05:29.088Z,30.22
2023-09-06T16:15:40.054Z,30.02
2023-09-06T16:25:43.821Z,29.92
2023-09-06T16:35:51.721Z,30.13
2023-09-06T16:46:01.981Z,30.21
2023-09-06T16:56:09.497Z,30.15
2023-09-06T17:06:18.624Z,29.84
2023-09-06T17:16:26.650Z,29.27
2023-09-06T17:26:36.848Z,28.80
2023-09-06T17:36:43.969Z,28.37
2023-09-06T17:46:51.033Z,27.97
2023-09-06T17:57:00.716Z,27.65
2023-09-06T18:07:07.432Z,27.14
2023-09-06T18:17:15.446Z,26.57
2023-09-06T18:27:18.790Z,25.99
2023-09-06T18:37:23.280Z,25.44
2023-09-06T18:47:26.375Z,24.97
2023-09-06T18:57:30.843Z,24.50
2023-09-06T19:07:35.101Z,24.18
2023-09-06T19:17:40.184Z,23.96
2023-09-06T19:27:44.226Z,23.65
2023-09-06T19:37:48.671Z,23.43
2023-09-06T19:47:51.812Z,23.17
2023-09-06T19:57:56.291Z,22.91
2023-09-06T20:08:00.037Z,22.68
2023-09-06T20:18:05.506Z,22.51
2023-09-06T20:28:08.635Z,22.39
2023-09-06T20:38:13.063Z,22.29
2023-09-06T20:48:16.575Z,22.14
2023-09-06T20:58:21.792Z,22.00
2023-09-06T21:08:25.026Z,21.84
2023-09-06T21:18:30.516Z,21.66
2023-09-06T21:28:34.145Z,21.53
2023-09-06T21:38:38.855Z,21.27
2023-09-06T21:48:41.981Z,21.19
2023-09-06T21:58:47.836Z,21.04
2023-09-06T22:08:53.749Z,20.95
2023-09-06T22:19:17.314Z,20.83
2023-09-06T22:29:20.372Z,20.71
2023-09-06T22:39:25.010Z,20.57
2023-09-06T22:49:28.111Z,20.37
2023-09-06T22:59:32.567Z,20.18
2023-09-06T23:09:35.647Z,20.04
2023-09-06T23:19:45.104Z,19.99
2023-09-06T23:29:52.095Z,19.86
2023-09-06T23:39:59.891Z,19.69
2023-09-06T23:50:03.312Z,19.56
